Relevés horaires Aigle (Suisse)


Relevés horaires à Aigle - Samedi 29 Déc. 2001
Heure UTC1 Température [°C] Vent [km/h] Hum. [%] Pres.4 [hPa] Visi. [Km] Nébu. [octa] Préc.5 [mm] Cond.
2m. Res. Ros. Dir.2 Vit. Moy. Raf.3
23:00 3.8 3.8 3.6 NNO 0.0 -- -- 99 1003.7 -- -- -- --
22:00 4.3 4.3 3.9 S 1.9 -- -- 97 1003.7 -- -- -- --
21:00 4.3 1.6 3.7 S 11.1 -- -- 96 1003.9 -- -- -- --
20:00 5.5 3.4 4.6 S 9.3 -- -- 94 1004.4 -- -- -- --
19:00 5.0 2.8 4.3 S 9.3 -- -- 95 1004.6 -- -- -- --
18:00 5.2 2.3 4.1 S 13.0 -- -- 93 1004.6(-0.7/3h) 6 8/8 11/12h
Pluie
17:00 4.1 4.1 3.3 ONO 3.7 -- -- 95 1005 -- -- -- --
16:00 4.8 4.8 3.6 NNO 0.0 -- -- 92 1005.2 -- -- -- --
15:00 5.1 1.6 3.9 SSE 16.7 -- -- 92 1005.3(-2.4/3h) 6 8/8 -- Brouillard
14:00 4.0 1.2 3.3 S 11.1 -- -- 95 1006.5 -- -- -- --
13:00 4.0 0.9 3.2 SE 13.0 -- -- 95 1007 -- -- -- --
12:00 3.6 3.6 2.9 SO 1.9 -- -- 95 1008.1(-2.6/3h) 10 8/8 5/6h
Pluie modérée continue
11:00 3.5 3.5 3.0 S 1.9 -- -- 97 1009 -- -- -- --
10:00 3.7 3.7 2.9 N 3.7 -- -- 94 1010.1 -- -- -- --
09:00 3.7 3.7 2.7 S 3.7 -- -- 93 1010.8(-0.7/3h) 10 8/8 -- Pluie modérée continue
08:00 2.9 1.5 2.2 SSO 5.6 -- -- 95 1011.6 -- -- -- --
07:00 3.5 -0.4 2.5 S 16.7 -- -- 93 1011 -- -- -- --
06:00 3.9 1.1 2.7 SSE 11.1 -- -- 92 1011.5(-2.5/3h) 4 8/8 4/12h
Pluie modérée continue
05:00 3.8 0.6 2.3 SSE 13.0 -- -- 90 1011.9 -- -- -- --
04:00 3.3 0 2.0 SSE 13.0 -- -- 91 1013 -- -- -- --
03:00 2.5 -0.6 1.5 S 11.1 -- -- 93 1014.4(-1.4/3h) 5 8/8 -- Légère pluie intermittente
02:00 2.5 -1.3 1.6 SE 14.8 -- -- 94 1015.1 -- -- -- --
01:00 2.3 2.3 1.8 SSE 3.7 -- -- 96 1015.9 -- -- -- --
00:00 2.9 0.8 1.8 N 7.4 -- -- 92 1015.8(-1.8/3h) -- -- -- --

1 Coordinated Universal Time. Actuellement il est 00:00 locale et 22:00 UTC.

2 Le vent souffle depuis la direction indiquée vers la direction oposée.

3 Les rafales max. sont disponible 40 min après l'heure du relevé.

4 Pour les stations d'altitude (plus de 600m) le géopotentiel du niveau le plus proche de la pression obligatoire est indiqué.

5 Les stations disposant d'un diffuseur peuvent indiquer "trace". Cela signifie que des précipitations ont touchés le sol mais que la quantité est inférieure à 0.1 mm.

Copyright

Les données affichées sur cette page sont la propriété exclusive de Météo Suisse.

Récapitulatif de la journée
Température [°C] Vent [km/h] Ensoleillement4 [h] Precipitations totale5 [mm] Pression [Hpa]
Min1 Max.2 Moy.3 Max. Min Max.
1.8 6.1 0 -- 0 h 0 min 29 1003.7 1015.9

1 Température minimale relevée entre 18:00 UTC la veille et 18:00 UTC le jour donné.

2 Température maximale relevée entre 06:00 UTC le jour donné et 06:00 UTC le lendemain.

3 Vent moyen de la journée basé sur les relevés horaires.

4 Ensoleillement en heures relevé entre 06:00 UTC la veille et 06:00 UTC le jour donné.

5 Précipitations totales tombées entre 06:00 UTC la jour donné et 06:00 UTC le lendemain.

Graphiques horaires